sensor_id;sensor_type;location;lat;lon;timestamp;pressure;altitude;pressure_sealevel;temperature;humidity
20455;BME280;10386;54.314;10.022;2024-02-28T00:01:02;103206.44;;;3.87;100.00
20455;BME280;10386;54.314;10.022;2024-02-28T00:03:29;103206.47;;;3.81;100.00
20455;BME280;10386;54.314;10.022;2024-02-28T00:05:58;103212.75;;;3.84;100.00
20455;BME280;10386;54.314;10.022;2024-02-28T00:08:25;103212.75;;;3.80;100.00
20455;BME280;10386;54.314;10.022;2024-02-28T00:10:52;103219.91;;;3.81;100.00
20455;BME280;10386;54.314;10.022;2024-02-28T00:13:21;103221.75;;;3.73;100.00
20455;BME280;10386;54.314;10.022;2024-02-28T00:15:49;103219.00;;;3.85;100.00
20455;BME280;10386;54.314;10.022;2024-02-28T00:18:16;103221.69;;;3.82;100.00
20455;BME280;10386;54.314;10.022;2024-02-28T00:20:46;103223.50;;;3.84;100.00
20455;BME280;10386;54.314;10.022;2024-02-28T00:23:13;103235.16;;;3.76;100.00
20455;BME280;10386;54.314;10.022;2024-02-28T00:25:40;103237.88;;;3.71;100.00
20455;BME280;10386;54.314;10.022;2024-02-28T00:28:07;103237.78;;;3.89;100.00
20455;BME280;10386;54.314;10.022;2024-02-28T00:30:35;103227.84;;;4.02;100.00
20455;BME280;10386;54.314;10.022;2024-02-28T00:33:02;103232.47;;;3.74;100.00
20455;BME280;10386;54.314;10.022;2024-02-28T00:35:31;103233.44;;;3.66;100.00
20455;BME280;10386;54.314;10.022;2024-02-28T00:38:03;103244.16;;;3.64;100.00
20455;BME280;10386;54.314;10.022;2024-02-28T00:40:30;103246.00;;;3.58;100.00
20455;BME280;10386;54.314;10.022;2024-02-28T00:42:57;103238.88;;;3.54;100.00
20455;BME280;10386;54.314;10.022;2024-02-28T00:45:24;103234.41;;;3.50;100.00
20455;BME280;10386;54.314;10.022;2024-02-28T00:47:51;103230.81;;;3.46;100.00
20455;BME280;10386;54.314;10.022;2024-02-28T00:50:18;103220.94;;;3.56;100.00
20455;BME280;10386;54.314;10.022;2024-02-28T00:52:45;103216.44;;;3.64;100.00
20455;BME280;10386;54.314;10.022;2024-02-28T00:55:12;103227.19;;;3.56;100.00
20455;BME280;10386;54.314;10.022;2024-02-28T00:57:39;103229.06;;;3.47;100.00
20455;BME280;10386;54.314;10.022;2024-02-28T01:00:06;103232.63;;;3.49;100.00
20455;BME280;10386;54.314;10.022;2024-02-28T01:02:33;103246.06;;;3.44;100.00
20455;BME280;10386;54.314;10.022;2024-02-28T01:05:00;103262.16;;;3.49;100.00
20455;BME280;10386;54.314;10.022;2024-02-28T01:07:27;103258.59;;;3.42;100.00
20455;BME280;10386;54.314;10.022;2024-02-28T01:09:54;103252.31;;;3.39;100.00
20455;BME280;10386;54.314;10.022;2024-02-28T01:12:21;103255.03;;;3.42;100.00
20455;BME280;10386;54.314;10.022;2024-02-28T01:14:48;103252.34;;;3.42;100.00
20455;BME280;10386;54.314;10.022;2024-02-28T01:17:15;103252.31;;;3.39;100.00
20455;BME280;10386;54.314;10.022;2024-02-28T01:19:42;103242.47;;;3.42;100.00
20455;BME280;10386;54.314;10.022;2024-02-28T01:22:09;103250.53;;;3.39;100.00
20455;BME280;10386;54.314;10.022;2024-02-28T01:24:36;103247.84;;;3.35;100.00
20455;BME280;10386;54.314;10.022;2024-02-28T01:27:03;103256.81;;;3.37;100.00
20455;BME280;10386;54.314;10.022;2024-02-28T01:29:30;103255.97;;;3.27;100.00
20455;BME280;10386;54.314;10.022;2024-02-28T01:31:57;103255.94;;;3.33;100.00
20455;BME280;10386;54.314;10.022;2024-02-28T01:34:25;103251.47;;;3.35;100.00
20455;BME280;10386;54.314;10.022;2024-02-28T01:36:51;103249.69;;;3.27;100.00
20455;BME280;10386;54.314;10.022;2024-02-28T01:39:18;103248.78;;;3.28;100.00
20455;BME280;10386;54.314;10.022;2024-02-28T01:41:53;103258.66;;;3.24;100.00
20455;BME280;10386;54.314;10.022;2024-02-28T01:44:21;103243.44;;;3.23;100.00
20455;BME280;10386;54.314;10.022;2024-02-28T01:46:48;103241.66;;;3.19;100.00
20455;BME280;10386;54.314;10.022;2024-02-28T01:49:16;103251.50;;;3.23;100.00
20455;BME280;10386;54.314;10.022;2024-02-28T01:51:44;103247.88;;;3.32;100.00
20455;BME280;10386;54.314;10.022;2024-02-28T01:54:11;103246.09;;;3.28;100.00
20455;BME280;10386;54.314;10.022;2024-02-28T01:56:39;103242.50;;;3.41;100.00
20455;BME280;10386;54.314;10.022;2024-02-28T01:59:07;103244.34;;;3.21;100.00
20455;BME280;10386;54.314;10.022;2024-02-28T02:01:36;103247.03;;;3.16;100.00
20455;BME280;10386;54.314;10.022;2024-02-28T02:04:03;103246.13;;;3.22;100.00
20455;BME280;10386;54.314;10.022;2024-02-28T02:06:32;103245.25;;;3.17;100.00
20455;BME280;10386;54.314;10.022;2024-02-28T02:08:59;103245.25;;;3.17;100.00
20455;BME280;10386;54.314;10.022;2024-02-28T02:11:26;103250.63;;;3.12;100.00
20455;BME280;10386;54.314;10.022;2024-02-28T02:13:53;103255.97;;;3.21;100.00
20455;BME280;10386;54.314;10.022;2024-02-28T02:16:20;103251.50;;;3.16;100.00
20455;BME280;10386;54.314;10.022;2024-02-28T02:18:53;103252.41;;;3.16;100.00
20455;BME280;10386;54.314;10.022;2024-02-28T02:21:23;103248.84;;;3.14;100.00
20455;BME280;10386;54.314;10.022;2024-02-28T02:23:51;103251.50;;;3.16;100.00
20455;BME280;10386;54.314;10.022;2024-02-28T02:26:18;103250.59;;;3.20;100.00
20455;BME280;10386;54.314;10.022;2024-02-28T02:28:45;103262.25;;;3.16;100.00
20455;BME280;10386;54.314;10.022;2024-02-28T02:31:13;103260.47;;;3.12;100.00
20455;BME280;10386;54.314;10.022;2024-02-28T02:33:43;103247.03;;;3.16;100.00
20455;BME280;10386;54.314;10.022;2024-02-28T02:36:10;103250.59;;;3.17;100.00
20455;BME280;10386;54.314;10.022;2024-02-28T02:38:37;103256.88;;;3.13;100.00
20455;BME280;10386;54.314;10.022;2024-02-28T02:41:04;103260.47;;;3.12;100.00
20455;BME280;10386;54.314;10.022;2024-02-28T02:43:31;103265.81;;;3.12;100.00
20455;BME280;10386;54.314;10.022;2024-02-28T02:45:57;103264.03;;;3.14;100.00
20455;BME280;10386;54.314;10.022;2024-02-28T02:48:24;103271.19;;;3.19;100.00
20455;BME280;10386;54.314;10.022;2024-02-28T02:50:51;103273.88;;;3.18;100.00
20455;BME280;10386;54.314;10.022;2024-02-28T02:53:18;103270.28;;;3.19;100.00
20455;BME280;10386;54.314;10.022;2024-02-28T02:55:46;103276.53;;;3.21;100.00
20455;BME280;10386;54.314;10.022;2024-02-28T02:58:13;103281.00;;;3.25;100.00
20455;BME280;10386;54.314;10.022;2024-02-28T03:00:39;103281.91;;;3.21;100.00
20455;BME280;10386;54.314;10.022;2024-02-28T03:03:06;103268.50;;;3.22;100.00
20455;BME280;10386;54.314;10.022;2024-02-28T03:05:33;103270.25;;;3.28;100.00
20455;BME280;10386;54.314;10.022;2024-02-28T03:08:00;103268.50;;;3.22;100.00
20455;BME280;10386;54.314;10.022;2024-02-28T03:10:27;103267.56;;;3.28;100.00
20455;BME280;10386;54.314;10.022;2024-02-28T03:12:54;103263.13;;;3.21;100.00
20455;BME280;10386;54.314;10.022;2024-02-28T03:15:21;103257.78;;;3.19;100.00
20455;BME280;10386;54.314;10.022;2024-02-28T03:17:48;103258.63;;;3.23;100.00
20455;BME280;10386;54.314;10.022;2024-02-28T03:20:15;103255.06;;;3.25;100.00
20455;BME280;10386;54.314;10.022;2024-02-28T03:22:41;103255.97;;;3.23;100.00
20455;BME280;10386;54.314;10.022;2024-02-28T03:25:09;103253.28;;;3.21;100.00
20455;BME280;10386;54.314;10.022;2024-02-28T03:27:36;103249.72;;;3.22;100.00
20455;BME280;10386;54.314;10.022;2024-02-28T03:30:03;103252.38;;;3.24;100.00
20455;BME280;10386;54.314;10.022;2024-02-28T03:32:30;103258.66;;;3.21;100.00
20455;BME280;10386;54.314;10.022;2024-02-28T03:34:57;103256.88;;;3.17;100.00
20455;BME280;10386;54.314;10.022;2024-02-28T03:37:24;103245.25;;;3.15;100.00
20455;BME280;10386;54.314;10.022;2024-02-28T03:39:51;103254.16;;;3.22;100.00
20455;BME280;10386;54.314;10.022;2024-02-28T03:42:18;103253.28;;;3.14;100.00
20455;BME280;10386;54.314;10.022;2024-02-28T03:44:45;103244.38;;;3.16;100.00
20455;BME280;10386;54.314;10.022;2024-02-28T03:47:12;103251.50;;;3.19;100.00
20455;BME280;10386;54.314;10.022;2024-02-28T03:49:39;103256.88;;;3.16;100.00
20455;BME280;10386;54.314;10.022;2024-02-28T03:52:06;103250.63;;;3.15;100.00
20455;BME280;10386;54.314;10.022;2024-02-28T03:54:35;103250.59;;;3.20;100.00
20455;BME280;10386;54.314;10.022;2024-02-28T03:57:01;103254.22;;;3.14;100.00
20455;BME280;10386;54.314;10.022;2024-02-28T03:59:31;103249.69;;;3.21;100.00
20455;BME280;10386;54.314;10.022;2024-02-28T04:01:58;103251.50;;;3.23;100.00
20455;BME280;10386;54.314;10.022;2024-02-28T04:04:25;103259.53;;;3.26;100.00
20455;BME280;10386;54.314;10.022;2024-02-28T04:06:52;103258.66;;;3.20;100.00
20455;BME280;10386;54.314;10.022;2024-02-28T04:09:19;103261.34;;;3.17;100.00
20455;BME280;10386;54.314;10.022;2024-02-28T04:11:47;103264.94;;;3.16;100.00
20455;BME280;10386;54.314;10.022;2024-02-28T04:14:14;103260.47;;;3.12;100.00
20455;BME280;10386;54.314;10.022;2024-02-28T04:16:41;103255.97;;;3.17;100.00
20455;BME280;10386;54.314;10.022;2024-02-28T04:19:11;103254.13;;;3.37;100.00
20455;BME280;10386;54.314;10.022;2024-02-28T04:21:37;103251.47;;;3.22;100.00
20455;BME280;10386;54.314;10.022;2024-02-28T04:24:06;103250.59;;;3.23;100.00
20455;BME280;10386;54.314;10.022;2024-02-28T04:26:33;103249.72;;;3.19;100.00
20455;BME280;10386;54.314;10.022;2024-02-28T04:29:00;103242.59;;;3.09;100.00
20455;BME280;10386;54.314;10.022;2024-02-28T04:31:29;103247.06;;;3.13;100.00
20455;BME280;10386;54.314;10.022;2024-02-28T04:33:56;103244.34;;;3.18;100.00
20455;BME280;10386;54.314;10.022;2024-02-28T04:36:23;103241.63;;;3.30;100.00
20455;BME280;10386;54.314;10.022;2024-02-28T04:38:50;103242.53;;;3.26;100.00
20455;BME280;10386;54.314;10.022;2024-02-28T04:41:17;103251.53;;;3.11;100.00
20455;BME280;10386;54.314;10.022;2024-02-28T04:43:43;103249.75;;;3.07;100.00
20455;BME280;10386;54.314;10.022;2024-02-28T04:46:10;103249.75;;;3.10;100.00
20455;BME280;10386;54.314;10.022;2024-02-28T04:48:37;103246.16;;;3.17;100.00
20455;BME280;10386;54.314;10.022;2024-02-28T04:51:04;103250.66;;;3.02;100.00
20455;BME280;10386;54.314;10.022;2024-02-28T04:53:31;103243.50;;;3.05;100.00
20455;BME280;10386;54.314;10.022;2024-02-28T04:55:58;103235.44;;;3.14;100.00
20455;BME280;10386;54.314;10.022;2024-02-28T04:58:25;103233.63;;;3.09;100.00
20455;BME280;10386;54.314;10.022;2024-02-28T05:00:51;103243.50;;;2.98;100.00
20455;BME280;10386;54.314;10.022;2024-02-28T05:03:19;103239.03;;;2.97;100.00
20455;BME280;10386;54.314;10.022;2024-02-28T05:05:45;103239.00;;;3.06;100.00
20455;BME280;10386;54.314;10.022;2024-02-28T05:08:12;103244.38;;;3.06;100.00
20455;BME280;10386;54.314;10.022;2024-02-28T05:10:39;103247.09;;;3.01;100.00
20455;BME280;10386;54.314;10.022;2024-02-28T05:13:06;103247.97;;;2.93;100.00
20455;BME280;10386;54.314;10.022;2024-02-28T05:15:33;103239.88;;;3.14;100.00
20455;BME280;10386;54.314;10.022;2024-02-28T05:18:00;103246.16;;;2.96;100.00
20455;BME280;10386;54.314;10.022;2024-02-28T05:20:27;103250.69;;;2.87;100.00
20455;BME280;10386;54.314;10.022;2024-02-28T05:22:54;103238.13;;;3.07;100.00
20455;BME280;10386;54.314;10.022;2024-02-28T05:25:20;103238.13;;;2.96;100.00
20455;BME280;10386;54.314;10.022;2024-02-28T05:27:47;103236.34;;;3.01;100.00
20455;BME280;10386;54.314;10.022;2024-02-28T05:30:14;103247.97;;;3.05;100.00
20455;BME280;10386;54.314;10.022;2024-02-28T05:32:41;103248.88;;;2.87;100.00
20455;BME280;10386;54.314;10.022;2024-02-28T05:35:08;103247.09;;;2.97;100.00
20455;BME280;10386;54.314;10.022;2024-02-28T05:37:38;103243.50;;;3.01;100.00
20455;BME280;10386;54.314;10.022;2024-02-28T05:40:07;103248.84;;;3.01;100.00
20455;BME280;10386;54.314;10.022;2024-02-28T05:42:34;103253.34;;;3.03;100.00
20455;BME280;10386;54.314;10.022;2024-02-28T05:45:01;103252.44;;;3.00;100.00
20455;BME280;10386;54.314;10.022;2024-02-28T05:47:27;103243.50;;;2.96;100.00
20455;BME280;10386;54.314;10.022;2024-02-28T05:49:56;103237.22;;;3.05;100.00
20455;BME280;10386;54.314;10.022;2024-02-28T05:52:24;103238.97;;;3.18;100.00
20455;BME280;10386;54.314;10.022;2024-02-28T05:54:54;103240.78;;;3.13;100.00
20455;BME280;10386;54.314;10.022;2024-02-28T05:57:21;103245.25;;;3.15;100.00
20455;BME280;10386;54.314;10.022;2024-02-28T05:59:48;103238.97;;;3.25;100.00
20455;BME280;10386;54.314;10.022;2024-02-28T06:02:14;103236.28;;;3.22;100.00
20455;BME280;10386;54.314;10.022;2024-02-28T06:04:41;103240.69;;;3.34;100.00
20455;BME280;10386;54.314;10.022;2024-02-28T06:07:08;103237.19;;;3.20;100.00
20455;BME280;10386;54.314;10.022;2024-02-28T06:09:35;103239.91;;;3.15;100.00
20455;BME280;10386;54.314;10.022;2024-02-28T06:12:02;103242.59;;;3.08;100.00
20455;BME280;10386;54.314;10.022;2024-02-28T06:14:29;103247.91;;;3.26;100.00
20455;BME280;10386;54.314;10.022;2024-02-28T06:16:55;103247.91;;;3.24;100.00
20455;BME280;10386;54.314;10.022;2024-02-28T06:19:22;103255.06;;;3.21;100.00
20455;BME280;10386;54.314;10.022;2024-02-28T06:21:49;103248.81;;;3.20;100.00
20455;BME280;10386;54.314;10.022;2024-02-28T06:24:17;103253.25;;;3.32;100.00
20455;BME280;10386;54.314;10.022;2024-02-28T06:26:44;103258.63;;;3.29;100.00
20455;BME280;10386;54.314;10.022;2024-02-28T06:29:15;103257.75;;;3.25;100.00
20455;BME280;10386;54.314;10.022;2024-02-28T06:31:42;103254.19;;;3.23;100.00
20455;BME280;10386;54.314;10.022;2024-02-28T06:34:09;103252.34;;;3.30;100.00
20455;BME280;10386;54.314;10.022;2024-02-28T06:36:39;103255.91;;;3.39;100.00
20455;BME280;10386;54.314;10.022;2024-02-28T06:39:07;103264.91;;;3.25;100.00
20455;BME280;10386;54.314;10.022;2024-02-28T06:41:33;103258.63;;;3.26;100.00
20455;BME280;10386;54.314;10.022;2024-02-28T06:44:00;103254.09;;;3.47;100.00
20455;BME280;10386;54.314;10.022;2024-02-28T06:46:27;103258.59;;;3.39;100.00
20455;BME280;10386;54.314;10.022;2024-02-28T06:48:54;103255.88;;;3.53;100.00
20455;BME280;10386;54.314;10.022;2024-02-28T06:51:21;103258.53;;;3.59;100.00
20455;BME280;10386;54.314;10.022;2024-02-28T06:53:48;103269.31;;;3.53;100.00
20455;BME280;10386;54.314;10.022;2024-02-28T06:56:15;103266.59;;;3.57;100.00
20455;BME280;10386;54.314;10.022;2024-02-28T06:58:41;103270.22;;;3.52;100.00
20455;BME280;10386;54.314;10.022;2024-02-28T07:01:08;103269.28;;;3.56;100.00
20455;BME280;10386;54.314;10.022;2024-02-28T07:03:36;103275.59;;;3.46;100.00
20455;BME280;10386;54.314;10.022;2024-02-28T07:06:03;103278.25;;;3.50;100.00
20455;BME280;10386;54.314;10.022;2024-02-28T07:08:31;103284.53;;;3.48;100.00
20455;BME280;10386;54.314;10.022;2024-02-28T07:10:59;103277.38;;;3.53;100.00
20455;BME280;10386;54.314;10.022;2024-02-28T07:13:26;103277.34;;;3.54;100.00
20455;BME280;10386;54.314;10.022;2024-02-28T07:15:53;103270.00;;;3.94;100.00
20455;BME280;10386;54.314;10.022;2024-02-28T07:18:21;103282.56;;;3.89;100.00
20455;BME280;10386;54.314;10.022;2024-02-28T07:20:49;103288.81;;;3.94;100.00
20455;BME280;10386;54.314;10.022;2024-02-28T07:23:16;103285.28;;;3.80;100.00
20455;BME280;10386;54.314;10.022;2024-02-28T07:25:43;103293.34;;;3.84;100.00
20455;BME280;10386;54.314;10.022;2024-02-28T07:28:10;103301.41;;;3.83;100.00
20455;BME280;10386;54.314;10.022;2024-02-28T07:30:36;103292.38;;;3.99;100.00
20455;BME280;10386;54.314;10.022;2024-02-28T07:33:05;103295.97;;;3.92;100.00
20455;BME280;10386;54.314;10.022;2024-02-28T07:35:32;103294.09;;;4.08;100.00
20455;BME280;10386;54.314;10.022;2024-02-28T07:37:59;103294.94;;;4.18;100.00
20455;BME280;10386;54.314;10.022;2024-02-28T07:40:26;103291.31;;;4.26;100.00
20455;BME280;10386;54.314;10.022;2024-02-28T07:42:52;103299.25;;;4.44;100.00
20455;BME280;10386;54.314;10.022;2024-02-28T07:45:19;103305.69;;;4.21;100.00
20455;BME280;10386;54.314;10.022;2024-02-28T07:47:46;103303.88;;;4.27;100.00
20455;BME280;10386;54.314;10.022;2024-02-28T07:50:13;103301.09;;;4.39;100.00
20455;BME280;10386;54.314;10.022;2024-02-28T07:52:40;103311.09;;;4.13;100.00
20455;BME280;10386;54.314;10.022;2024-02-28T07:55:07;103303.00;;;4.16;100.00
20455;BME280;10386;54.314;10.022;2024-02-28T07:57:34;103305.69;;;4.21;100.00
20455;BME280;10386;54.314;10.022;2024-02-28T08:00:01;103300.25;;;4.27;100.00
20455;BME280;10386;54.314;10.022;2024-02-28T08:02:27;103303.81;;;4.33;100.00
20455;BME280;10386;54.314;10.022;2024-02-28T08:04:55;103300.28;;;4.22;100.00
20455;BME280;10386;54.314;10.022;2024-02-28T08:07:22;103303.81;;;4.33;100.00
20455;BME280;10386;54.314;10.022;2024-02-28T08:09:49;103303.66;;;4.54;100.00
20455;BME280;10386;54.314;10.022;2024-02-28T08:12:16;103309.94;;;4.53;100.00
20455;BME280;10386;54.314;10.022;2024-02-28T08:14:43;103312.53;;;4.65;100.00
20455;BME280;10386;54.314;10.022;2024-02-28T08:17:10;103320.56;;;4.76;100.00
20455;BME280;10386;54.314;10.022;2024-02-28T08:19:36;103319.59;;;4.81;100.00
20455;BME280;10386;54.314;10.022;2024-02-28T08:22:03;103334.06;;;4.64;100.00
20455;BME280;10386;54.314;10.022;2024-02-28T08:24:30;103331.34;;;4.68;100.00
20455;BME280;10386;54.314;10.022;2024-02-28T08:26:57;103332.16;;;4.81;100.00
20455;BME280;10386;54.314;10.022;2024-02-28T08:29:24;103339.47;;;4.62;100.00
20455;BME280;10386;54.314;10.022;2024-02-28T08:31:51;103333.16;;;4.66;100.00
20455;BME280;10386;54.314;10.022;2024-02-28T08:34:20;103332.16;;;4.79;100.00
20455;BME280;10386;54.314;10.022;2024-02-28T08:36:47;103336.69;;;4.74;100.00
20455;BME280;10386;54.314;10.022;2024-02-28T08:39:14;103341.28;;;4.59;100.00
20455;BME280;10386;54.314;10.022;2024-02-28T08:41:40;103340.34;;;4.64;100.00
20455;BME280;10386;54.314;10.022;2024-02-28T08:44:07;103338.56;;;4.68;100.00
20455;BME280;10386;54.314;10.022;2024-02-28T08:46:34;103336.63;;;4.80;100.00
20455;BME280;10386;54.314;10.022;2024-02-28T08:49:01;103342.13;;;4.68;100.00
20455;BME280;10386;54.314;10.022;2024-02-28T08:51:28;103339.31;;;4.85;100.00
20455;BME280;10386;54.314;10.022;2024-02-28T08:53:54;103345.56;;;4.85;100.00
20455;BME280;10386;54.314;10.022;2024-02-28T08:56:22;103336.53;;;4.92;100.00
20455;BME280;10386;54.314;10.022;2024-02-28T08:58:49;103335.53;;;5.07;100.00
20455;BME280;10386;54.314;10.022;2024-02-28T09:01:16;103350.94;;;4.85;100.00
20455;BME280;10386;54.314;10.022;2024-02-28T09:03:43;103351.84;;;4.86;100.00
20455;BME280;10386;54.314;10.022;2024-02-28T09:06:10;103357.22;;;4.87;100.00
20455;BME280;10386;54.314;10.022;2024-02-28T09:08:37;103352.78;;;4.85;100.00
20455;BME280;10386;54.314;10.022;2024-02-28T09:11:04;103357.22;;;4.89;100.00
20455;BME280;10386;54.314;10.022;2024-02-28T09:13:32;103360.78;;;4.89;100.00
20455;BME280;10386;54.314;10.022;2024-02-28T09:15:58;103356.22;;;4.97;100.00
20455;BME280;10386;54.314;10.022;2024-02-28T09:18:25;103363.34;;;5.04;100.00
20455;BME280;10386;54.314;10.022;2024-02-28T09:20:52;103366.09;;;5.00;100.00
20455;BME280;10386;54.314;10.022;2024-02-28T09:23:19;103373.31;;;4.95;100.00
20455;BME280;10386;54.314;10.022;2024-02-28T09:25:46;103374.13;;;5.06;100.00
20455;BME280;10386;54.314;10.022;2024-02-28T09:28:13;103376.78;;;5.07;100.00
20455;BME280;10386;54.314;10.022;2024-02-28T09:30:42;103363.31;;;5.13;100.00
20455;BME280;10386;54.314;10.022;2024-02-28T09:33:18;103370.34;;;5.26;100.00
20455;BME280;10386;54.314;10.022;2024-02-28T09:35:46;103376.47;;;5.41;100.00
20455;BME280;10386;54.314;10.022;2024-02-28T09:38:14;103379.47;;;5.12;100.00
20455;BME280;10386;54.314;10.022;2024-02-28T09:40:40;103381.25;;;5.13;100.00
20455;BME280;10386;54.314;10.022;2024-02-28T09:43:15;103383.03;;;5.09;100.00
20455;BME280;10386;54.314;10.022;2024-02-28T09:45:46;103374.09;;;5.10;100.00
20455;BME280;10386;54.314;10.022;2024-02-28T09:48:16;103383.06;;;5.06;100.00
20455;BME280;10386;54.314;10.022;2024-02-28T09:50:45;103379.47;;;5.10;100.00
20455;BME280;10386;54.314;10.022;2024-02-28T09:53:12;103381.28;;;5.05;100.00
20455;BME280;10386;54.314;10.022;2024-02-28T09:55:39;103390.19;;;5.16;100.00
20455;BME280;10386;54.314;10.022;2024-02-28T09:58:07;103378.53;;;5.16;100.00
20455;BME280;10386;54.314;10.022;2024-02-28T10:00:35;103388.50;;;5.00;100.00
20455;BME280;10386;54.314;10.022;2024-02-28T10:03:04;103383.88;;;5.20;100.00
20455;BME280;10386;54.314;10.022;2024-02-28T10:05:33;103389.25;;;5.19;100.00
20455;BME280;10386;54.314;10.022;2024-02-28T10:08:01;103385.66;;;5.21;100.00
20455;BME280;10386;54.314;10.022;2024-02-28T10:10:28;103389.09;;;5.37;100.00
20455;BME280;10386;54.314;10.022;2024-02-28T10:12:56;103386.44;;;5.35;100.00
20455;BME280;10386;54.314;10.022;2024-02-28T10:15:23;103384.53;;;5.46;100.00
20455;BME280;10386;54.314;10.022;2024-02-28T10:17:50;103381.63;;;5.64;100.00
20455;BME280;10386;54.314;10.022;2024-02-28T10:20:17;103383.22;;;5.86;100.00
20455;BME280;10386;54.314;10.022;2024-02-28T10:22:43;103385.91;;;5.86;100.00
20455;BME280;10386;54.314;10.022;2024-02-28T10:25:10;103391.84;;;6.18;100.00
20455;BME280;10386;54.314;10.022;2024-02-28T10:27:37;103390.06;;;6.15;100.00
20455;BME280;10386;54.314;10.022;2024-02-28T10:30:05;103397.41;;;6.03;100.00
20455;BME280;10386;54.314;10.022;2024-02-28T10:32:32;103402.94;;;5.91;100.00
20455;BME280;10386;54.314;10.022;2024-02-28T10:35:04;103401.94;;;6.01;100.00
20455;BME280;10386;54.314;10.022;2024-02-28T10:37:37;103407.25;;;6.05;100.00
20455;BME280;10386;54.314;10.022;2024-02-28T10:40:06;103405.38;;;6.13;100.00
20455;BME280;10386;54.314;10.022;2024-02-28T10:42:33;103404.63;;;5.99;100.00
20455;BME280;10386;54.314;10.022;2024-02-28T10:45:01;103408.19;;;6.04;100.00
20455;BME280;10386;54.314;10.022;2024-02-28T10:47:46;103412.59;;;6.11;100.00
20455;BME280;10386;54.314;10.022;2024-02-28T10:50:17;103413.38;;;6.19;100.00
20455;BME280;10386;54.314;10.022;2024-02-28T10:52:44;103424.47;;;5.97;100.00
20455;BME280;10386;54.314;10.022;2024-02-28T10:55:23;103414.59;;;5.93;100.00
20455;BME280;10386;54.314;10.022;2024-02-28T10:57:58;103411.97;;;5.87;100.00
20455;BME280;10386;54.314;10.022;2024-02-28T11:00:27;103425.38;;;5.94;100.00
20455;BME280;10386;54.314;10.022;2024-02-28T11:02:56;103409.03;;;6.08;100.00
20455;BME280;10386;54.314;10.022;2024-02-28T11:05:23;103409.16;;;5.99;100.00
20455;BME280;10386;54.314;10.022;2024-02-28T11:07:54;103416.91;;;6.24;100.00
20455;BME280;10386;54.314;10.022;2024-02-28T11:10:23;103403.41;;;6.26;100.00
20455;BME280;10386;54.314;10.022;2024-02-28T11:12:54;103415.03;;;6.31;100.00
20455;BME280;10386;54.314;10.022;2024-02-28T11:15:24;103413.13;;;6.40;100.00
20455;BME280;10386;54.314;10.022;2024-02-28T11:17:53;103406.00;;;6.35;100.00
20455;BME280;10386;54.314;10.022;2024-02-28T11:20:20;103411.56;;;6.21;100.00
20455;BME280;10386;54.314;10.022;2024-02-28T11:22:56;103415.25;;;6.14;100.00
20455;BME280;10386;54.314;10.022;2024-02-28T11:25:24;103407.19;;;6.13;100.00
20455;BME280;10386;54.314;10.022;2024-02-28T11:27:51;103416.06;;;6.21;100.00
20455;BME280;10386;54.314;10.022;2024-02-28T11:30:18;103411.56;;;6.23;100.00
20455;BME280;10386;54.314;10.022;2024-02-28T11:32:45;103406.69;;;6.50;100.00
20455;BME280;10386;54.314;10.022;2024-02-28T11:35:12;103405.97;;;6.38;100.00
20455;BME280;10386;54.314;10.022;2024-02-28T11:37:40;103406.88;;;6.37;100.00
20455;BME280;10386;54.314;10.022;2024-02-28T11:40:08;103400.31;;;6.56;100.00
20455;BME280;10386;54.314;10.022;2024-02-28T11:42:37;103396.94;;;6.37;100.00
20455;BME280;10386;54.314;10.022;2024-02-28T11:45:09;103403.22;;;6.41;100.00
20455;BME280;10386;54.314;10.022;2024-02-28T11:47:36;103403.34;;;6.30;100.00
20455;BME280;10386;54.314;10.022;2024-02-28T11:50:04;103393.47;;;6.29;100.00
20455;BME280;10386;54.314;10.022;2024-02-28T11:52:34;103406.91;;;6.34;100.00
20455;BME280;10386;54.314;10.022;2024-02-28T11:55:00;103395.22;;;6.33;100.00
20455;BME280;10386;54.314;10.022;2024-02-28T11:57:27;103404.16;;;6.38;100.00
20455;BME280;10386;54.314;10.022;2024-02-28T11:59:56;103399.66;;;6.39;100.00
20455;BME280;10386;54.314;10.022;2024-02-28T12:02:23;103396.06;;;6.38;100.00
20455;BME280;10386;54.314;10.022;2024-02-28T12:04:53;103393.06;;;6.59;100.00
20455;BME280;10386;54.314;10.022;2024-02-28T12:07:22;103394.91;;;6.57;100.00
20455;BME280;10386;54.314;10.022;2024-02-28T12:09:48;103397.59;;;6.56;100.00
20455;BME280;10386;54.314;10.022;2024-02-28T12:12:16;103392.41;;;6.42;100.00
20455;BME280;10386;54.314;10.022;2024-02-28T12:14:43;103391.34;;;6.54;100.00
20455;BME280;10386;54.314;10.022;2024-02-28T12:17:10;103388.31;;;6.75;100.00
20455;BME280;10386;54.314;10.022;2024-02-28T12:19:37;103386.44;;;6.79;100.00
20455;BME280;10386;54.314;10.022;2024-02-28T12:22:05;103390.69;;;6.97;100.00
20455;BME280;10386;54.314;10.022;2024-02-28T12:24:33;103383.69;;;6.84;100.00
20455;BME280;10386;54.314;10.022;2024-02-28T12:27:00;103381.41;;;7.13;100.00
20455;BME280;10386;54.314;10.022;2024-02-28T12:29:27;103380.09;;;7.36;100.00
20455;BME280;10386;54.314;10.022;2024-02-28T12:31:54;103386.31;;;7.43;100.00
20455;BME280;10386;54.314;10.022;2024-02-28T12:34:21;103387.81;;;7.07;100.00
20455;BME280;10386;54.314;10.022;2024-02-28T12:36:48;103386.19;;;6.96;100.00
20455;BME280;10386;54.314;10.022;2024-02-28T12:39:14;103381.03;;;6.82;100.00
20455;BME280;10386;54.314;10.022;2024-02-28T12:41:41;103379.00;;;6.96;100.00